Time;durP1;ratioP1;P1;durP2;ratioP2;P2;SDS_P1;SDS_P2;PMS_P1;PMS_P2;Temp;Humidity;BMP_temperature;BMP_pressure;BME280_temperature;BME280_humidity;BME280_pressure;Samples;Min_cycle;Max_cycle;Signal;HPM_P1;HPM_P2
2024/03/16 00:00:37;;;;;;;3.45;1.08;;;9.60;99.90;;;;;;5051391;28;20053;-53
2024/03/16 00:03:04;;;;;;;5.85;1.20;;;9.50;99.90;;;;;;5049778;28;20033;-53
2024/03/16 00:05:30;;;;;;;6.72;1.30;;;9.50;99.90;;;;;;5051707;28;20106;-56
2024/03/16 00:07:55;;;;;;;7.88;1.63;;;9.40;99.90;;;;;;5050855;28;20065;-53
2024/03/16 00:10:21;;;;;;;5.65;1.73;;;9.40;99.90;;;;;;5050566;28;20032;-54
2024/03/16 00:12:46;;;;;;;4.55;1.38;;;9.40;99.90;;;;;;5049679;28;20048;-56
2024/03/16 00:15:12;;;;;;;8.70;1.10;;;9.40;99.90;;;;;;5052578;28;20037;-56
2024/03/16 00:17:37;;;;;;;3.22;1.40;;;9.30;99.90;;;;;;5060661;28;20094;-55
2024/03/16 00:20:10;;;;;;;6.05;1.50;;;9.30;99.90;;;;;;5054416;28;20427;-54
2024/03/16 00:22:37;;;;;;;4.47;1.30;;;9.30;99.90;;;;;;5046528;28;20540;-50
2024/03/16 00:25:03;;;;;;;5.38;1.20;;;9.30;99.90;;;;;;5053078;28;20048;-55
2024/03/16 00:27:29;;;;;;;3.38;1.42;;;9.30;99.90;;;;;;5052133;28;20033;-51
2024/03/16 00:29:55;;;;;;;4.03;1.38;;;9.30;99.90;;;;;;5051891;28;20479;-50
2024/03/16 00:32:21;;;;;;;4.25;1.70;;;9.30;99.90;;;;;;5053246;28;20033;-49
2024/03/16 00:34:47;;;;;;;2.35;1.30;;;9.30;99.90;;;;;;5054993;28;20430;-57
2024/03/16 00:37:13;;;;;;;3.90;1.40;;;9.30;99.90;;;;;;5052538;28;20025;-49
2024/03/16 00:39:39;;;;;;;6.20;1.23;;;9.30;99.90;;;;;;5053474;28;20493;-52
2024/03/16 00:42:05;;;;;;;5.93;1.75;;;9.30;99.90;;;;;;5049156;28;20095;-53
2024/03/16 00:44:31;;;;;;;4.15;1.13;;;9.20;99.90;;;;;;5060794;28;20029;-49
2024/03/16 00:46:56;;;;;;;3.97;1.25;;;9.20;99.90;;;;;;5048023;28;20017;-52
2024/03/16 00:49:22;;;;;;;5.40;1.90;;;9.10;99.90;;;;;;5054598;28;20025;-54
2024/03/16 00:51:48;;;;;;;3.67;1.35;;;9.20;99.90;;;;;;5047296;28;20510;-52
2024/03/16 00:54:14;;;;;;;4.20;1.25;;;9.20;99.90;;;;;;5051397;28;20044;-52
2024/03/16 00:56:39;;;;;;;3.03;1.35;;;9.20;99.90;;;;;;5054356;28;20086;-49
2024/03/16 00:59:05;;;;;;;4.80;1.35;;;9.20;99.90;;;;;;5052428;28;20067;-49
2024/03/16 01:01:34;;;;;;;2.38;0.80;;;9.20;99.90;;;;;;5051680;28;20513;-52
2024/03/16 01:04:03;;;;;;;3.20;1.63;;;9.20;99.90;;;;;;5057177;28;20054;-48
2024/03/16 01:06:29;;;;;;;1.50;1.00;;;9.20;99.90;;;;;;5053490;28;20025;-48
2024/03/16 01:08:55;;;;;;;2.75;1.55;;;9.20;99.90;;;;;;5050473;28;20054;-49
2024/03/16 01:11:23;;;;;;;1.83;1.08;;;9.20;99.90;;;;;;5052160;28;20053;-50
2024/03/16 01:13:52;;;;;;;4.45;1.38;;;9.20;99.90;;;;;;5050022;28;20029;-53
2024/03/16 01:16:18;;;;;;;1.63;0.80;;;9.20;99.90;;;;;;5048192;28;20095;-56
2024/03/16 01:18:43;;;;;;;2.30;1.10;;;9.20;99.90;;;;;;5051514;28;20514;-50
2024/03/16 01:21:10;;;;;;;4.90;1.20;;;9.20;99.90;;;;;;5050659;28;20059;-53
2024/03/16 01:23:35;;;;;;;2.30;1.02;;;9.20;99.90;;;;;;5051596;28;20029;-52
2024/03/16 01:26:01;;;;;;;1.85;1.00;;;9.20;99.90;;;;;;5055776;28;20495;-49
2024/03/16 01:28:27;;;;;;;1.42;0.80;;;9.20;99.90;;;;;;5057357;28;20032;-51
2024/03/16 01:30:52;;;;;;;4.72;0.80;;;9.20;99.90;;;;;;5050551;28;20025;-51
2024/03/16 01:33:21;;;;;;;4.78;0.88;;;9.30;99.90;;;;;;5051939;28;20401;-51
2024/03/16 01:35:48;;;;;;;1.80;0.70;;;9.30;99.90;;;;;;5055059;28;20043;-52
2024/03/16 01:38:15;;;;;;;2.35;1.23;;;9.30;99.90;;;;;;5051034;28;20029;-51
2024/03/16 01:40:40;;;;;;;3.20;0.95;;;9.20;99.90;;;;;;5051248;28;20045;-48
2024/03/16 01:43:10;;;;;;;2.05;0.40;;;9.20;99.90;;;;;;5050472;28;20032;-54
2024/03/16 01:45:35;;;;;;;1.20;0.65;;;9.20;99.90;;;;;;5055802;28;20028;-48
2024/03/16 01:48:03;;;;;;;1.92;0.55;;;9.20;99.90;;;;;;5049701;28;20025;-49
2024/03/16 01:50:29;;;;;;;6.28;1.25;;;9.20;99.90;;;;;;5050581;28;20041;-49
2024/03/16 01:52:55;;;;;;;2.38;0.70;;;9.30;99.90;;;;;;5051566;28;20017;-53
2024/03/16 01:55:21;;;;;;;0.82;0.60;;;9.30;99.90;;;;;;5049433;28;20032;-48
2024/03/16 01:57:46;;;;;;;0.90;0.43;;;9.20;99.90;;;;;;5055656;28;20120;-54
2024/03/16 02:00:12;;;;;;;2.38;0.52;;;9.30;99.90;;;;;;5061782;28;20426;-49
2024/03/16 02:02:38;;;;;;;7.07;0.50;;;9.20;99.90;;;;;;5051661;28;20434;-53
2024/03/16 02:05:05;;;;;;;0.43;0.40;;;9.20;99.90;;;;;;5047326;28;20104;-48
2024/03/16 02:07:34;;;;;;;1.98;1.42;;;9.20;99.90;;;;;;5046484;28;20487;-49
2024/03/16 02:10:01;;;;;;;3.20;0.90;;;9.20;99.90;;;;;;5054276;28;20063;-47
2024/03/16 02:12:27;;;;;;;1.23;0.68;;;9.20;99.90;;;;;;5047749;28;20037;-47
2024/03/16 02:14:53;;;;;;;1.00;0.57;;;9.20;99.90;;;;;;5056245;28;20033;-48
2024/03/16 02:17:18;;;;;;;3.45;0.60;;;9.20;99.90;;;;;;5050021;28;20024;-46
2024/03/16 02:19:47;;;;;;;1.45;0.75;;;9.20;99.90;;;;;;5050337;28;20479;-50
2024/03/16 02:22:13;;;;;;;0.93;0.40;;;9.20;99.90;;;;;;5050659;28;20021;-50
2024/03/16 02:24:39;;;;;;;4.07;0.73;;;9.20;99.90;;;;;;5049971;28;20059;-49
2024/03/16 02:27:06;;;;;;;1.05;0.28;;;9.30;99.90;;;;;;5054054;28;20089;-47
2024/03/16 02:29:35;;;;;;;0.47;0.35;;;9.20;99.90;;;;;;5051369;28;20036;-52
2024/03/16 02:32:01;;;;;;;2.50;0.45;;;9.30;99.90;;;;;;5051200;28;20456;-52
2024/03/16 02:34:26;;;;;;;3.15;0.50;;;9.30;99.90;;;;;;5049724;28;20107;-54
2024/03/16 02:36:52;;;;;;;1.00;0.40;;;9.30;99.90;;;;;;5059216;28;20040;-52
2024/03/16 02:39:19;;;;;;;2.47;0.38;;;9.30;99.90;;;;;;5046183;28;20035;-51
2024/03/16 02:41:45;;;;;;;0.80;0.43;;;9.30;99.90;;;;;;5051063;28;20509;-50
2024/03/16 02:44:11;;;;;;;0.75;0.40;;;9.30;99.90;;;;;;5050410;28;20028;-50
2024/03/16 02:46:37;;;;;;;1.58;0.47;;;9.30;99.90;;;;;;5050638;28;20484;-53
2024/03/16 02:49:02;;;;;;;6.53;0.45;;;9.30;99.90;;;;;;5050845;28;20100;-51
2024/03/16 02:51:28;;;;;;;0.40;0.32;;;9.30;99.90;;;;;;5050389;28;20025;-49
2024/03/16 02:53:56;;;;;;;0.85;0.43;;;9.30;99.90;;;;;;5050411;28;20020;-49
2024/03/16 02:56:22;;;;;;;1.30;0.50;;;9.30;99.90;;;;;;5053877;28;20028;-52
2024/03/16 02:58:47;;;;;;;0.88;0.70;;;9.30;99.90;;;;;;5048244;28;20407;-54
2024/03/16 03:01:13;;;;;;;3.72;0.60;;;9.30;99.90;;;;;;5049676;28;20028;-48
2024/03/16 03:03:39;;;;;;;5.80;0.57;;;9.30;99.90;;;;;;5055396;28;20036;-51
2024/03/16 03:06:04;;;;;;;2.70;0.90;;;9.30;99.90;;;;;;5050251;28;20029;-51
2024/03/16 03:08:33;;;;;;;3.38;0.85;;;9.30;99.90;;;;;;5050564;28;20397;-53
2024/03/16 03:10:59;;;;;;;3.88;0.60;;;9.20;99.90;;;;;;5049942;28;20108;-52
2024/03/16 03:13:25;;;;;;;1.38;0.70;;;9.20;99.90;;;;;;5049473;28;20453;-48
2024/03/16 03:15:50;;;;;;;4.93;0.50;;;9.20;99.90;;;;;;5050625;28;20052;-50
2024/03/16 03:18:16;;;;;;;6.35;0.95;;;9.20;99.90;;;;;;5047155;28;20029;-53
2024/03/16 03:20:45;;;;;;;4.45;0.90;;;9.20;99.90;;;;;;5048998;28;20037;-52
2024/03/16 03:23:10;;;;;;;4.10;1.05;;;9.20;99.90;;;;;;5049459;28;20041;-49
2024/03/16 03:25:36;;;;;;;2.47;1.15;;;9.20;99.90;;;;;;5048607;28;20804;-49
2024/03/16 03:28:02;;;;;;;4.90;1.30;;;9.30;99.90;;;;;;5050501;28;20515;-52
2024/03/16 03:30:28;;;;;;;2.53;1.80;;;9.30;99.90;;;;;;5048715;28;20060;-48
2024/03/16 03:32:53;;;;;;;8.23;2.08;;;9.30;99.90;;;;;;5050445;28;20037;-52
2024/03/16 03:35:19;;;;;;;4.50;2.05;;;9.30;99.90;;;;;;5050671;28;20466;-54
2024/03/16 03:37:44;;;;;;;4.15;2.42;;;9.40;99.90;;;;;;5048384;28;20058;-50
2024/03/16 03:40:10;;;;;;;5.45;3.08;;;9.40;99.90;;;;;;5048412;28;20087;-53
2024/03/16 03:42:39;;;;;;;4.55;3.13;;;9.40;99.90;;;;;;5057988;28;20037;-50
2024/03/16 03:45:11;;;;;;;8.23;3.22;;;9.40;99.90;;;;;;5057037;28;20107;-52
2024/03/16 03:47:49;;;;;;;4.78;3.00;;;9.50;99.90;;;;;;5051256;28;20029;-50
2024/03/16 03:50:23;;;;;;;9.02;3.35;;;9.50;99.90;;;;;;5059625;28;20017;-50
2024/03/16 03:52:48;;;;;;;;;;;9.50;99.90;;;;;;5059634;28;20025;-52
2024/03/16 03:55:14;;;;;;;7.03;3.10;;;9.50;99.90;;;;;;5053979;28;19913;-51
2024/03/16 03:57:39;;;;;;;8.25;3.60;;;9.60;99.90;;;;;;5053303;28;20060;-48
2024/03/16 04:00:08;;;;;;;6.93;3.58;;;9.50;99.90;;;;;;5054646;28;20099;-52
2024/03/16 04:02:34;;;;;;;7.63;4.57;;;9.50;99.90;;;;;;5052311;28;20414;-51
2024/03/16 04:04:59;;;;;;;5.65;3.15;;;9.50;99.90;;;;;;5052012;28;20025;-50
2024/03/16 04:07:25;;;;;;;9.55;4.63;;;9.60;99.90;;;;;;5054765;28;20032;-49
2024/03/16 04:09:50;;;;;;;6.05;3.78;;;9.60;99.90;;;;;;5052240;28;20096;-48
2024/03/16 04:12:16;;;;;;;10.85;5.00;;;9.60;99.90;;;;;;5052112;28;20020;-53
2024/03/16 04:14:41;;;;;;;10.13;5.30;;;9.60;99.90;;;;;;5053252;28;20502;-48
2024/03/16 04:17:07;;;;;;;13.02;5.68;;;9.60;99.90;;;;;;5051081;28;20079;-51
2024/03/16 04:19:33;;;;;;;9.98;4.93;;;9.60;99.90;;;;;;5052961;28;20029;-49
2024/03/16 04:21:58;;;;;;;10.50;4.45;;;9.60;99.90;;;;;;5051655;28;20037;-51
2024/03/16 04:24:24;;;;;;;9.85;4.18;;;9.60;99.90;;;;;;5053026;28;20122;-50
2024/03/16 04:26:50;;;;;;;5.85;2.78;;;9.60;99.90;;;;;;5059448;28;20024;-53
2024/03/16 04:29:15;;;;;;;6.03;2.58;;;9.60;99.90;;;;;;5053137;28;20033;-54
2024/03/16 04:31:41;;;;;;;5.35;2.50;;;9.60;99.90;;;;;;5053081;28;20104;-52
2024/03/16 04:34:06;;;;;;;6.45;2.40;;;9.60;99.90;;;;;;5053131;28;20107;-50
2024/03/16 04:36:32;;;;;;;6.20;1.80;;;9.60;99.90;;;;;;5055830;28;20025;-53
2024/03/16 04:38:57;;;;;;;4.00;1.60;;;9.60;99.90;;;;;;5046830;28;20140;-49
2024/03/16 04:41:23;;;;;;;3.03;1.58;;;9.60;99.90;;;;;;5054945;28;20035;-50
2024/03/16 04:43:48;;;;;;;4.85;1.70;;;9.60;99.90;;;;;;5051288;28;20074;-49
2024/03/16 04:46:14;;;;;;;5.15;1.77;;;9.60;99.90;;;;;;5052133;28;20021;-52
2024/03/16 04:48:39;;;;;;;8.45;1.88;;;9.60;99.90;;;;;;5058698;28;20502;-48
2024/03/16 04:51:05;;;;;;;3.33;1.65;;;9.60;99.90;;;;;;5056270;28;20519;-48
2024/03/16 04:53:31;;;;;;;6.75;2.17;;;9.60;99.90;;;;;;5050064;28;20032;-47
2024/03/16 04:55:56;;;;;;;3.97;1.40;;;9.60;99.90;;;;;;5049428;28;20037;-50
2024/03/16 04:58:22;;;;;;;3.67;1.38;;;9.60;99.90;;;;;;5051633;28;20397;-48
2024/03/16 05:00:48;;;;;;;11.18;2.05;;;9.60;99.90;;;;;;5052684;28;20033;-47
2024/03/16 05:03:14;;;;;;;4.68;1.60;;;9.60;99.90;;;;;;5051412;28;20021;-47
2024/03/16 05:05:39;;;;;;;5.65;1.60;;;9.60;99.90;;;;;;5051791;28;20041;-49
2024/03/16 05:08:07;;;;;;;3.92;1.70;;;9.60;99.90;;;;;;5050230;28;20025;-49
2024/03/16 05:10:32;;;;;;;3.95;2.33;;;9.60;99.90;;;;;;5051425;28;20104;-47
2024/03/16 05:12:58;;;;;;;7.32;1.55;;;9.60;99.90;;;;;;5066068;28;20108;-48
2024/03/16 05:15:24;;;;;;;5.15;1.88;;;9.60;99.90;;;;;;5070146;28;20509;-53
2024/03/16 05:17:50;;;;;;;5.57;1.98;;;9.60;99.90;;;;;;5052405;28;20063;-54
2024/03/16 05:20:15;;;;;;;6.72;1.70;;;9.60;99.90;;;;;;5061805;28;20494;-49
2024/03/16 05:22:41;;;;;;;5.07;1.92;;;9.60;99.90;;;;;;5060482;28;20032;-49
2024/03/16 05:25:06;;;;;;;5.47;1.70;;;9.60;99.90;;;;;;5050488;28;20483;-48
2024/03/16 05:27:32;;;;;;;5.93;1.80;;;9.60;99.90;;;;;;5049361;28;20491;-50
2024/03/16 05:29:58;;;;;;;7.68;2.20;;;9.60;99.90;;;;;;5048972;28;20433;-51
2024/03/16 05:32:23;;;;;;;4.35;2.10;;;9.60;99.90;;;;;;5062628;28;20028;-48
2024/03/16 05:34:49;;;;;;;10.45;1.95;;;9.60;99.90;;;;;;5055391;28;20112;-48
2024/03/16 05:37:15;;;;;;;8.55;1.95;;;9.60;99.90;;;;;;5053218;28;20040;-51
2024/03/16 05:39:40;;;;;;;7.90;2.70;;;9.60;99.90;;;;;;5048148;28;20029;-50
2024/03/16 05:42:06;;;;;;;6.75;2.38;;;9.60;99.90;;;;;;5047092;28;20086;-50
2024/03/16 05:44:32;;;;;;;10.43;3.45;;;9.60;99.90;;;;;;5050667;28;20056;-48
2024/03/16 05:46:57;;;;;;;8.52;2.58;;;9.60;99.90;;;;;;5070867;22;20056;-51
2024/03/16 05:49:23;;;;;;;8.10;3.40;;;9.70;99.90;;;;;;5050844;28;20082;-54
2024/03/16 05:51:48;;;;;;;6.30;3.33;;;9.70;99.90;;;;;;5050868;28;20036;-49
2024/03/16 05:54:14;;;;;;;9.23;4.80;;;9.70;99.90;;;;;;5049287;28;20029;-51
2024/03/16 05:56:39;;;;;;;9.32;4.07;;;9.70;99.90;;;;;;5038493;28;20032;-50
2024/03/16 05:59:08;;;;;;;8.95;4.82;;;9.70;99.90;;;;;;5051308;28;20100;-49
2024/03/16 06:01:34;;;;;;;7.70;4.13;;;9.70;99.90;;;;;;5051690;28;20520;-48
2024/03/16 06:04:00;;;;;;;7.28;4.03;;;9.80;99.90;;;;;;5053717;28;20044;-48
2024/03/16 06:06:26;;;;;;;9.52;4.97;;;9.80;99.90;;;;;;5050035;28;20073;-49
2024/03/16 06:08:51;;;;;;;13.07;5.82;;;9.80;99.90;;;;;;5050178;28;20027;-52
2024/03/16 06:11:17;;;;;;;13.45;5.30;;;9.80;99.90;;;;;;5050777;28;20068;-50
2024/03/16 06:13:42;;;;;;;14.02;6.45;;;9.80;99.90;;;;;;5051331;28;20116;-49
2024/03/16 06:16:08;;;;;;;8.75;6.32;;;9.80;99.90;;;;;;5049341;28;20032;-51
2024/03/16 06:18:33;;;;;;;10.50;6.25;;;9.80;99.90;;;;;;5051259;28;20025;-48
2024/03/16 06:20:59;;;;;;;13.38;6.63;;;9.90;99.90;;;;;;5053834;28;20033;-51
2024/03/16 06:23:25;;;;;;;12.43;6.32;;;9.90;99.90;;;;;;5048660;28;20119;-51
2024/03/16 06:25:51;;;;;;;13.65;6.30;;;9.80;99.90;;;;;;5048284;28;20048;-50
2024/03/16 06:28:21;;;;;;;17.30;7.80;;;9.90;99.90;;;;;;5050415;28;20394;-48
2024/03/16 06:30:49;;;;;;;13.00;6.85;;;9.90;99.90;;;;;;5050884;28;20545;-49
2024/03/16 06:33:27;;;;;;;13.40;6.70;;;9.90;99.90;;;;;;5050053;28;20079;-51
2024/03/16 06:35:53;;;;;;;11.75;7.90;;;9.90;99.90;;;;;;5049563;28;20107;-50
2024/03/16 06:38:19;;;;;;;12.18;6.07;;;9.90;99.90;;;;;;5050355;28;20025;-49
2024/03/16 06:40:45;;;;;;;13.45;6.30;;;10.00;99.90;;;;;;5050024;28;20032;-49
2024/03/16 06:43:10;;;;;;;11.90;6.78;;;10.00;99.90;;;;;;5049536;28;20375;-48
2024/03/16 06:45:36;;;;;;;15.27;6.85;;;10.00;99.90;;;;;;5047965;28;20037;-51
2024/03/16 06:48:02;;;;;;;24.15;6.55;;;10.00;99.90;;;;;;5049981;28;20032;-53
2024/03/16 06:50:27;;;;;;;18.75;7.55;;;10.00;99.90;;;;;;5049701;28;20481;-51
2024/03/16 06:52:53;;;;;;;18.52;6.85;;;10.10;99.90;;;;;;5052413;28;20032;-48
2024/03/16 06:55:19;;;;;;;15.68;6.55;;;10.10;99.90;;;;;;5047880;28;20025;-49
2024/03/16 06:57:44;;;;;;;16.08;7.00;;;10.00;99.90;;;;;;5049967;28;20021;-52
2024/03/16 07:00:11;;;;;;;12.45;6.40;;;10.10;99.90;;;;;;5051204;28;20064;-50
2024/03/16 07:02:36;;;;;;;16.95;7.05;;;10.10;99.90;;;;;;5050731;28;20036;-51
2024/03/16 07:05:02;;;;;;;15.20;8.13;;;10.10;99.90;;;;;;5047673;28;20036;-52
2024/03/16 07:07:28;;;;;;;14.48;7.75;;;10.10;99.90;;;;;;5050293;28;20510;-50
2024/03/16 07:09:54;;;;;;;12.68;7.45;;;10.10;99.90;;;;;;5047613;28;20017;-48
2024/03/16 07:12:21;;;;;;;8.85;4.13;;;10.10;99.90;;;;;;5049580;28;20550;-49
2024/03/16 07:14:47;;;;;;;7.18;3.72;;;10.00;99.90;;;;;;5050528;28;20284;-48
2024/03/16 07:17:12;;;;;;;3.40;2.28;;;9.80;99.90;;;;;;5042904;28;20026;-48
2024/03/16 07:19:38;;;;;;;6.30;2.97;;;9.60;99.90;;;;;;5048727;28;20033;-49
2024/03/16 07:22:04;;;;;;;7.20;2.50;;;9.40;99.90;;;;;;5051374;28;20047;-51
2024/03/16 07:24:29;;;;;;;3.83;2.50;;;9.30;99.90;;;;;;5054147;28;20058;-48
2024/03/16 07:26:55;;;;;;;6.75;1.77;;;9.20;99.90;;;;;;5052253;28;20017;-50
2024/03/16 07:29:20;;;;;;;6.93;2.33;;;9.10;99.90;;;;;;5054178;28;20507;-49
2024/03/16 07:31:47;;;;;;;6.65;2.13;;;9.00;99.90;;;;;;5053735;28;20040;-51
2024/03/16 07:34:13;;;;;;;6.20;2.00;;;9.00;99.90;;;;;;5054688;28;20034;-48
2024/03/16 07:36:38;;;;;;;3.97;1.92;;;9.00;99.90;;;;;;5052495;28;20537;-51
2024/03/16 07:39:08;;;;;;;5.28;3.08;;;9.00;99.90;;;;;;5045586;28;20040;-52
2024/03/16 07:41:37;;;;;;;5.30;2.30;;;9.10;99.90;;;;;;5053118;28;20025;-53
2024/03/16 07:44:03;;;;;;;3.58;2.28;;;9.10;99.90;;;;;;5057334;28;20477;-51
2024/03/16 07:46:28;;;;;;;4.78;1.92;;;9.20;99.90;;;;;;5052872;28;20045;-51
2024/03/16 07:48:56;;;;;;;3.92;2.33;;;9.20;99.90;;;;;;5053598;28;20100;-48
2024/03/16 07:51:28;;;;;;;7.07;3.05;;;9.30;99.90;;;;;;5052404;28;20409;-50
2024/03/16 07:53:55;;;;;;;5.20;2.67;;;9.20;99.90;;;;;;5050536;28;20075;-48
2024/03/16 07:56:20;;;;;;;6.72;2.50;;;9.30;99.90;;;;;;5052722;28;20038;-50
2024/03/16 07:58:46;;;;;;;5.75;3.15;;;9.30;99.90;;;;;;5053257;28;20422;-50
2024/03/16 08:01:12;;;;;;;5.30;3.65;;;9.40;99.90;;;;;;5057182;28;20029;-47
2024/03/16 08:03:38;;;;;;;7.13;3.20;;;9.50;99.90;;;;;;5053882;28;20494;-52
2024/03/16 08:06:07;;;;;;;8.57;2.95;;;9.60;99.90;;;;;;5051376;28;20048;-48
2024/03/16 08:08:33;;;;;;;5.47;3.00;;;9.50;99.90;;;;;;5047109;28;20020;-49
2024/03/16 08:10:59;;;;;;;4.75;2.67;;;9.70;99.90;;;;;;5052494;28;20048;-54
2024/03/16 08:13:24;;;;;;;5.95;3.45;;;9.70;99.90;;;;;;5053354;28;20056;-50
2024/03/16 08:15:50;;;;;;;4.40;2.17;;;9.80;99.90;;;;;;5053465;28;20029;-53
2024/03/16 08:18:16;;;;;;;4.85;2.47;;;9.80;99.90;;;;;;5057065;28;20411;-51
2024/03/16 08:20:41;;;;;;;8.40;2.78;;;9.80;99.90;;;;;;5051852;28;20044;-50
2024/03/16 08:23:07;;;;;;;4.07;2.80;;;9.80;99.90;;;;;;5053362;28;20483;-47
2024/03/16 08:25:33;;;;;;;6.22;3.20;;;9.90;99.90;;;;;;5046026;28;20025;-48
2024/03/16 08:27:59;;;;;;;5.65;2.95;;;9.70;99.90;;;;;;5053061;28;20019;-48
2024/03/16 08:30:27;;;;;;;5.03;1.90;;;9.70;99.90;;;;;;5053159;28;20082;-50
2024/03/16 08:32:53;;;;;;;5.22;2.20;;;9.50;99.90;;;;;;5052287;28;20029;-49
2024/03/16 08:35:19;;;;;;;4.53;2.45;;;9.50;99.90;;;;;;5054009;28;20390;-48
2024/03/16 08:37:45;;;;;;;3.88;2.08;;;9.50;99.90;;;;;;5050877;28;20063;-47
2024/03/16 08:40:15;;;;;;;14.00;3.00;;;9.50;99.90;;;;;;5049163;28;20052;-52
2024/03/16 08:42:40;;;;;;;3.65;2.03;;;9.30;99.90;;;;;;5052908;28;20025;-49
2024/03/16 08:45:10;;;;;;;4.22;2.10;;;9.30;99.90;;;;;;5052160;28;20029;-51
2024/03/16 08:47:36;;;;;;;4.55;2.00;;;9.40;99.90;;;;;;5052354;28;20135;-48
2024/03/16 08:50:04;;;;;;;6.65;1.98;;;9.60;99.90;;;;;;5052139;28;20027;-48
2024/03/16 08:52:30;;;;;;;4.47;2.17;;;9.90;99.90;;;;;;5051345;28;20107;-48
2024/03/16 08:54:56;;;;;;;2.53;1.80;;;10.30;99.90;;;;;;5051672;28;20124;-52
2024/03/16 08:57:25;;;;;;;4.72;2.15;;;10.60;99.90;;;;;;5050359;28;20029;-51
2024/03/16 08:59:51;;;;;;;3.78;2.50;;;10.60;99.90;;;;;;5053627;28;20039;-54
2024/03/16 09:02:20;;;;;;;4.63;2.78;;;10.70;99.90;;;;;;5051810;28;20025;-51
2024/03/16 09:04:50;;;;;;;4.10;2.38;;;10.50;99.90;;;;;;5050125;28;20046;-50
2024/03/16 09:07:16;;;;;;;4.85;2.20;;;10.40;99.90;;;;;;5051218;28;20037;-51
2024/03/16 09:09:41;;;;;;;4.38;2.30;;;10.20;99.90;;;;;;5048491;28;20052;-54
2024/03/16 09:12:07;;;;;;;3.60;2.17;;;9.90;99.90;;;;;;5048432;28;20041;-50
2024/03/16 09:14:33;;;;;;;5.45;2.80;;;10.00;99.90;;;;;;5052341;28;20033;-48
2024/03/16 09:16:59;;;;;;;6.30;2.42;;;10.00;99.90;;;;;;5054084;28;20024;-49
2024/03/16 09:19:26;;;;;;;7.18;2.58;;;10.00;99.90;;;;;;5051131;28;20029;-51
2024/03/16 09:21:51;;;;;;;4.38;3.20;;;10.00;99.90;;;;;;5046088;28;20120;-51
2024/03/16 09:24:18;;;;;;;3.70;2.33;;;10.30;99.90;;;;;;5050995;28;20104;-48
2024/03/16 09:26:44;;;;;;;4.55;2.22;;;10.60;99.90;;;;;;5054908;28;20029;-51
2024/03/16 09:29:09;;;;;;;5.13;2.53;;;10.60;99.90;;;;;;5052310;28;20028;-48
2024/03/16 09:31:35;;;;;;;3.17;1.83;;;10.70;99.90;;;;;;5051835;28;20013;-49
2024/03/16 09:34:01;;;;;;;3.30;1.60;;;10.70;99.90;;;;;;5053974;28;20044;-54
2024/03/16 09:36:28;;;;;;;3.38;1.70;;;10.60;99.90;;;;;;5050476;28;20108;-52
2024/03/16 09:38:53;;;;;;;2.75;1.50;;;10.80;99.90;;;;;;5049803;28;20028;-51
2024/03/16 09:41:20;;;;;;;4.70;1.77;;;10.80;99.90;;;;;;5050498;28;20522;-51
2024/03/16 09:43:47;;;;;;;4.07;1.40;;;11.00;99.90;;;;;;5054656;28;20063;-49
2024/03/16 09:46:13;;;;;;;3.38;1.70;;;11.10;99.90;;;;;;5050824;28;20029;-52
2024/03/16 09:48:39;;;;;;;6.47;1.92;;;11.30;99.90;;;;;;5051486;28;20027;-49
2024/03/16 09:51:05;;;;;;;2.08;0.90;;;11.40;99.90;;;;;;5048463;28;20104;-51
2024/03/16 09:53:32;;;;;;;4.93;1.50;;;11.50;99.90;;;;;;5048074;28;20132;-48
2024/03/16 09:56:09;;;;;;;4.03;1.38;;;11.60;99.90;;;;;;5046538;28;20017;-54
2024/03/16 09:58:36;;;;;;;50.35;20.73;;;11.60;99.90;;;;;;5050419;28;20501;-52
2024/03/16 10:01:03;;;;;;;6.55;2.65;;;11.60;99.90;;;;;;5054137;28;20044;-49
2024/03/16 10:03:32;;;;;;;2.42;1.40;;;11.60;99.90;;;;;;5051112;28;20095;-50
2024/03/16 10:05:59;;;;;;;5.85;2.35;;;11.80;99.90;;;;;;5050320;28;20037;-52
2024/03/16 10:08:25;;;;;;;2.53;1.48;;;11.80;99.90;;;;;;5052522;28;20029;-51
2024/03/16 10:11:10;;;;;;;2.50;1.35;;;11.60;99.90;;;;;;5049851;28;20025;-51
2024/03/16 10:13:37;;;;;;;2.28;1.48;;;11.30;99.90;;;;;;5050321;28;20028;-52
2024/03/16 10:16:06;;;;;;;2.88;1.27;;;11.10;99.90;;;;;;5050564;28;20032;-48
2024/03/16 10:18:34;;;;;;;7.82;2.08;;;10.80;99.90;;;;;;5053206;28;20025;-49
2024/03/16 10:21:00;;;;;;;4.15;1.10;;;10.30;99.90;;;;;;5047432;28;20090;-50
2024/03/16 10:23:26;;;;;;;1.73;1.00;;;10.20;99.90;;;;;;5050911;28;20059;-50
2024/03/16 10:25:56;;;;;;;3.15;1.10;;;10.00;99.90;;;;;;5051801;28;20060;-52
2024/03/16 10:28:22;;;;;;;3.83;1.00;;;10.00;99.90;;;;;;5050855;28;20124;-52
2024/03/16 10:30:48;;;;;;;4.10;1.50;;;10.10;99.90;;;;;;5044430;28;20021;-49
2024/03/16 10:33:18;;;;;;;3.58;1.20;;;10.30;99.90;;;;;;5048345;28;20402;-52
2024/03/16 10:35:44;;;;;;;5.07;1.50;;;10.20;99.90;;;;;;5047359;28;20392;-54
2024/03/16 10:38:13;;;;;;;5.22;1.42;;;10.30;99.90;;;;;;5050113;28;20021;-53
2024/03/16 10:40:40;;;;;;;2.45;1.17;;;10.20;99.90;;;;;;5043263;28;20549;-51
2024/03/16 10:43:14;;;;;;;5.93;1.23;;;10.10;99.90;;;;;;5047880;28;20104;-51
2024/03/16 10:45:46;;;;;;;2.45;1.15;;;10.00;99.90;;;;;;5049273;28;20063;-50
2024/03/16 10:48:13;;;;;;;2.30;1.40;;;9.80;99.90;;;;;;5046032;28;20549;-54
2024/03/16 10:50:39;;;;;;;2.53;1.20;;;9.80;99.90;;;;;;5050789;28;20022;-52
2024/03/16 10:53:09;;;;;;;4.32;1.15;;;10.00;99.90;;;;;;5052518;28;20029;-56
2024/03/16 10:55:35;;;;;;;3.22;1.20;;;9.90;99.90;;;;;;5047706;28;20074;-52
2024/03/16 10:58:02;;;;;;;3.58;1.60;;;9.90;99.90;;;;;;5044530;28;20029;-53
2024/03/16 11:00:34;;;;;;;5.80;1.63;;;9.70;99.90;;;;;;5046278;28;20026;-55
2024/03/16 11:03:01;;;;;;;4.65;1.73;;;9.80;99.90;;;;;;5044743;28;20044;-55
2024/03/16 11:05:39;;;;;;;3.95;1.70;;;9.70;99.90;;;;;;5044404;28;20086;-57
2024/03/16 11:08:13;;;;;;;3.08;1.67;;;9.90;99.90;;;;;;5052603;28;20032;-58
2024/03/16 11:10:43;;;;;;;2.17;1.15;;;9.90;99.90;;;;;;5045215;28;20025;-58
2024/03/16 11:13:16;;;;;;;3.20;1.65;;;9.80;99.90;;;;;;5049915;28;20048;-57
2024/03/16 11:15:46;;;;;;;3.83;2.03;;;9.70;99.90;;;;;;5047758;28;20104;-58
2024/03/16 11:18:17;;;;;;;4.65;2.47;;;10.00;99.90;;;;;;5049271;28;20414;-57
2024/03/16 11:20:55;;;;;;;13.32;3.70;;;10.20;99.90;;;;;;5047338;28;20120;-56
2024/03/16 11:23:28;;;;;;;5.07;2.60;;;10.20;99.90;;;;;;5045219;28;20029;-57
2024/03/16 11:25:55;;;;;;;6.30;3.15;;;10.40;99.90;;;;;;5045648;28;20448;-54
2024/03/16 11:28:22;;;;;;;5.25;2.78;;;10.60;99.90;;;;;;5044460;28;20029;-57
2024/03/16 11:30:50;;;;;;;9.27;4.05;;;10.70;99.90;;;;;;5043418;28;20025;-57
2024/03/16 11:33:17;;;;;;;5.15;3.20;;;11.00;99.90;;;;;;5053051;28;20061;-58
2024/03/16 11:35:43;;;;;;;8.57;3.03;;;11.10;99.90;;;;;;5048661;28;20021;-57
2024/03/16 11:38:15;;;;;;;7.10;3.03;;;11.40;99.90;;;;;;5048240;28;20023;-53
2024/03/16 11:40:46;;;;;;;8.63;3.08;;;11.50;99.90;;;;;;5040694;28;20117;-57
2024/03/16 11:43:12;;;;;;;8.95;3.03;;;11.70;99.90;;;;;;5046898;28;20069;-57
2024/03/16 11:45:46;;;;;;;6.10;2.45;;;12.10;99.90;;;;;;5044133;28;20364;-57
2024/03/16 11:48:12;;;;;;;2.65;2.42;;;11.80;99.90;;;;;;5043703;28;20378;-54
2024/03/16 11:50:39;;;;;;;3.17;2.38;;;11.80;99.90;;;;;;5124776;22;20041;-57
2024/03/16 11:53:09;;;;;;;3.42;2.28;;;11.50;99.90;;;;;;5048328;28;20075;-54
2024/03/16 11:55:36;;;;;;;6.50;2.65;;;11.00;99.90;;;;;;5044887;28;20467;-55
2024/03/16 11:58:05;;;;;;;5.00;2.88;;;10.50;99.90;;;;;;5047617;28;20021;-55
2024/03/16 12:00:32;;;;;;;6.38;3.15;;;10.00;99.90;;;;;;5052052;28;20440;-56
2024/03/16 12:03:01;;;;;;;7.97;3.25;;;9.80;99.90;;;;;;5050755;28;20119;-58
2024/03/16 12:05:28;;;;;;;5.75;3.13;;;9.70;99.90;;;;;;5051215;28;20687;-57
2024/03/16 12:07:55;;;;;;;4.00;2.63;;;9.90;99.90;;;;;;5043999;28;20033;-57
2024/03/16 12:10:22;;;;;;;6.95;2.65;;;10.00;99.90;;;;;;5052419;28;20041;-56
2024/03/16 12:12:50;;;;;;;5.95;3.00;;;10.30;99.90;;;;;;5048520;28;21500;-56
2024/03/16 12:15:19;;;;;;;10.95;3.05;;;10.50;99.90;;;;;;5050282;28;20394;-56
2024/03/16 12:17:46;;;;;;;8.30;2.17;;;10.60;99.90;;;;;;5056290;28;20040;-57
2024/03/16 12:20:16;;;;;;;6.95;3.10;;;10.70;99.90;;;;;;5047850;28;20090;-57
2024/03/16 12:22:48;;;;;;;2.60;2.08;;;10.90;99.90;;;;;;5049109;28;20116;-53
2024/03/16 12:25:14;;;;;;;4.47;2.07;;;10.80;99.90;;;;;;5048046;28;20036;-56
2024/03/16 12:28:06;;;;;;;5.28;2.67;;;10.80;99.90;;;;;;5053577;28;20033;-57
2024/03/16 12:30:35;;;;;;;5.18;2.55;;;11.00;99.90;;;;;;5042139;28;20033;-57
2024/03/16 12:33:02;;;;;;;5.30;2.25;;;11.40;99.90;;;;;;5044940;28;20521;-57
2024/03/16 12:35:31;;;;;;;5.63;2.88;;;11.70;99.90;;;;;;5055055;28;20065;-57
2024/03/16 12:38:00;;;;;;;3.08;2.40;;;11.90;99.90;;;;;;5037353;28;20037;-58
2024/03/16 12:40:26;;;;;;;6.95;1.70;;;12.20;99.90;;;;;;5033129;28;20490;-56
2024/03/16 12:42:52;;;;;;;3.80;1.50;;;11.90;99.90;;;;;;5047502;28;20025;-56
2024/03/16 12:45:18;;;;;;;4.63;1.70;;;11.90;99.90;;;;;;5048264;28;20127;-57
2024/03/16 12:47:43;;;;;;;4.90;2.40;;;11.70;99.90;;;;;;5052087;28;20030;-57
2024/03/16 12:50:09;;;;;;;4.40;1.40;;;11.60;99.90;;;;;;5043889;28;20022;-55